Goldfield, Mississippi
Current Conditions -  °F | °C
As of 2:35 PM on Wednesday 26 Nov 2014 (Local Time) from KRNV Reporting Station
Clear Clear  
Wind Chill: 62°   Ceiling: Unl
Heat Index: 62°   Visibility: 10mi
Dew Point: 40°   Wind: 15mph
Humidity: 44%   Direction: 290°WNW
Pressure: 30.02"   Gusts: 23mph
Location:  33.8731°N, 90.5512°W
Report Text: KRNV 262035Z AUTO 29013G20KT 10SM CLR 17/04 A3002 RMK AO2 T01660042
Loading
Personal Weather Stations






























Interactive Weather Map New forecast layout! Learn more

10-Day Weather Forecast

Advertisements
Track Severe Weather on mobile